createdAt,value
2017-12-28T00:00:59.950Z,911.39
2017-12-28T00:01:59.941Z,911.31
2017-12-28T00:02:59.934Z,911.35
2017-12-28T00:03:59.927Z,911.39
2017-12-28T00:04:59.921Z,911.41
2017-12-28T00:05:59.913Z,911.41
2017-12-28T00:06:59.908Z,911.43
2017-12-28T00:07:59.899Z,911.46
2017-12-28T00:08:59.893Z,911.52
2017-12-28T00:09:59.884Z,911.55
2017-12-28T00:10:59.877Z,911.60
2017-12-28T00:11:59.869Z,911.59
2017-12-28T00:12:59.863Z,911.61
2017-12-28T00:13:59.857Z,911.64
2017-12-28T00:14:59.848Z,911.73
2017-12-28T00:15:59.842Z,911.70
2017-12-28T00:16:59.840Z,911.80
2017-12-28T00:17:59.828Z,911.83
2017-12-28T00:18:59.820Z,911.78
2017-12-28T00:19:59.812Z,911.65
2017-12-28T00:20:59.806Z,911.59
2017-12-28T00:21:59.798Z,911.57
2017-12-28T00:22:59.792Z,911.54
2017-12-28T00:23:59.784Z,911.47
2017-12-28T00:24:59.778Z,911.52
2017-12-28T00:25:59.769Z,911.54
2017-12-28T00:26:59.762Z,911.56
2017-12-28T00:27:59.756Z,911.59
2017-12-28T00:28:59.749Z,911.63
2017-12-28T00:29:59.741Z,911.62
2017-12-28T00:30:59.733Z,911.68
2017-12-28T00:31:59.728Z,911.73
2017-12-28T00:32:59.720Z,911.70
2017-12-28T00:33:59.713Z,911.66
2017-12-28T00:34:59.706Z,911.68
2017-12-28T00:35:59.700Z,911.71
2017-12-28T00:36:59.693Z,911.78
2017-12-28T00:37:59.684Z,911.79
2017-12-28T00:38:59.679Z,911.89
2017-12-28T00:39:59.671Z,911.77
2017-12-28T00:40:59.664Z,911.74
2017-12-28T00:41:59.655Z,911.80
2017-12-28T00:42:59.648Z,911.84
2017-12-28T00:43:59.642Z,911.77
2017-12-28T00:44:59.636Z,911.80
2017-12-28T00:45:59.627Z,911.70
2017-12-28T00:46:59.627Z,911.71
2017-12-28T00:47:59.614Z,911.65
2017-12-28T00:48:59.607Z,911.60
2017-12-28T00:49:59.599Z,911.62
2017-12-28T00:50:59.592Z,911.65
2017-12-28T00:51:59.586Z,911.63
2017-12-28T00:52:59.580Z,911.66
2017-12-28T00:53:59.572Z,911.67
2017-12-28T00:54:59.571Z,911.67
2017-12-28T00:55:59.557Z,911.73
2017-12-28T00:56:59.551Z,911.78
2017-12-28T00:57:59.544Z,911.77
2017-12-28T00:58:59.537Z,911.80
2017-12-28T00:59:59.529Z,911.80
2017-12-28T01:00:59.521Z,911.79
2017-12-28T01:01:59.514Z,911.75
2017-12-28T01:02:59.507Z,911.72
2017-12-28T01:03:59.500Z,911.73
2017-12-28T01:04:59.494Z,911.78
2017-12-28T01:05:59.485Z,911.82
2017-12-28T01:06:59.479Z,911.84
2017-12-28T01:07:59.472Z,911.89
2017-12-28T01:08:59.466Z,911.91
2017-12-28T01:09:59.459Z,911.92
2017-12-28T01:10:59.451Z,911.98
2017-12-28T01:11:59.445Z,911.95
2017-12-28T01:12:59.440Z,911.95
2017-12-28T01:13:59.430Z,911.92
2017-12-28T01:14:59.423Z,911.97
2017-12-28T01:15:59.417Z,912.01
2017-12-28T01:16:59.410Z,912.05
2017-12-28T01:17:59.402Z,912.07
2017-12-28T01:18:59.395Z,912.03
2017-12-28T01:19:59.393Z,911.98
2017-12-28T01:20:59.381Z,911.96
2017-12-28T01:21:59.372Z,911.98
2017-12-28T01:22:59.366Z,911.92
2017-12-28T01:23:59.366Z,911.88
2017-12-28T01:24:59.353Z,911.93
2017-12-28T01:25:59.345Z,911.96
2017-12-28T01:26:59.339Z,911.97
2017-12-28T01:27:59.332Z,911.98
2017-12-28T01:28:59.324Z,912.00
2017-12-28T01:29:59.317Z,911.99
2017-12-28T01:30:59.311Z,912.03
2017-12-28T01:31:59.303Z,912.11
2017-12-28T01:32:59.297Z,912.20
2017-12-28T01:33:59.291Z,912.19
2017-12-28T01:34:59.283Z,912.18
2017-12-28T01:35:59.277Z,912.15
2017-12-28T01:36:59.269Z,912.15
2017-12-28T01:37:59.261Z,912.19
2017-12-28T01:38:59.256Z,912.21
2017-12-28T01:39:59.248Z,912.30
2017-12-28T01:40:59.242Z,912.27
2017-12-28T01:41:59.233Z,912.29
2017-12-28T01:42:59.228Z,912.24
2017-12-28T01:43:59.221Z,912.24
2017-12-28T01:44:59.214Z,912.28
2017-12-28T01:45:59.208Z,912.32
2017-12-28T01:46:59.200Z,912.35
2017-12-28T01:47:59.193Z,912.33
2017-12-28T01:48:59.187Z,912.37
2017-12-28T01:49:59.181Z,912.42
2017-12-28T01:50:59.173Z,912.40
2017-12-28T01:51:59.167Z,912.45
2017-12-28T01:52:59.161Z,912.50
2017-12-28T01:53:59.153Z,912.46
2017-12-28T01:54:59.148Z,912.43
2017-12-28T01:55:59.141Z,912.48
2017-12-28T01:56:59.134Z,912.48
2017-12-28T01:57:59.129Z,912.53
2017-12-28T01:58:59.123Z,912.49
2017-12-28T01:59:59.115Z,912.50
2017-12-28T02:00:59.109Z,912.49
2017-12-28T02:01:59.102Z,912.49
2017-12-28T02:02:59.097Z,912.46
2017-12-28T02:03:59.089Z,912.44
2017-12-28T02:04:59.084Z,912.44
2017-12-28T02:05:59.077Z,912.49
2017-12-28T02:06:59.071Z,912.50
2017-12-28T02:07:59.065Z,912.50
2017-12-28T02:08:59.058Z,912.54
2017-12-28T02:09:59.050Z,912.52
2017-12-28T02:10:59.045Z,912.55
2017-12-28T02:11:59.039Z,912.50
2017-12-28T02:12:59.033Z,912.53
2017-12-28T02:13:59.025Z,912.54
2017-12-28T02:14:59.018Z,912.52
2017-12-28T02:15:59.014Z,912.49
2017-12-28T02:16:59.006Z,912.50
2017-12-28T02:17:58.999Z,912.48
2017-12-28T02:18:58.992Z,912.56
2017-12-28T02:19:58.987Z,912.53
2017-12-28T02:20:58.981Z,912.52
2017-12-28T02:21:58.974Z,912.53
2017-12-28T02:22:58.967Z,912.59
2017-12-28T02:23:58.962Z,912.55
2017-12-28T02:24:58.955Z,912.54
2017-12-28T02:25:58.948Z,912.52
2017-12-28T02:26:58.943Z,912.48
2017-12-28T02:27:58.936Z,912.50
2017-12-28T02:28:58.930Z,912.53
2017-12-28T02:29:58.922Z,912.44
2017-12-28T02:30:58.917Z,912.48
2017-12-28T02:31:58.910Z,912.45
2017-12-28T02:32:58.906Z,912.46
2017-12-28T02:33:58.897Z,912.48
2017-12-28T02:34:58.891Z,912.48
2017-12-28T02:35:58.885Z,912.46
2017-12-28T02:36:58.879Z,912.47
2017-12-28T02:37:58.876Z,912.45
2017-12-28T02:38:58.867Z,912.51
2017-12-28T02:39:58.859Z,912.48
2017-12-28T02:40:58.853Z,912.42
2017-12-28T02:41:58.846Z,912.43
2017-12-28T02:42:58.840Z,912.43
2017-12-28T02:43:58.835Z,912.43
2017-12-28T02:44:58.828Z,912.40
2017-12-28T02:45:58.820Z,912.42
2017-12-28T02:46:58.817Z,912.47
2017-12-28T02:47:58.816Z,912.49
2017-12-28T02:48:58.802Z,912.50
2017-12-28T02:49:58.795Z,912.50
2017-12-28T02:50:58.789Z,912.48
2017-12-28T02:51:58.782Z,912.57
2017-12-28T02:52:58.778Z,912.55
2017-12-28T02:53:58.769Z,912.54
2017-12-28T02:54:58.763Z,912.53
2017-12-28T02:55:58.758Z,912.54
2017-12-28T02:56:58.752Z,912.54
2017-12-28T02:57:58.745Z,912.53
2017-12-28T02:58:58.738Z,912.50
2017-12-28T02:59:58.732Z,912.50
2017-12-28T03:00:58.729Z,912.48
2017-12-28T03:01:58.718Z,912.46
2017-12-28T03:02:58.712Z,912.49
2017-12-28T03:03:58.706Z,912.51
2017-12-28T03:04:58.700Z,912.49
2017-12-28T03:05:58.693Z,912.48
2017-12-28T03:06:58.687Z,912.52
2017-12-28T03:07:58.682Z,912.51
2017-12-28T03:08:58.675Z,912.55
2017-12-28T03:09:58.668Z,912.56
2017-12-28T03:10:58.663Z,912.56
2017-12-28T03:11:58.656Z,912.61
2017-12-28T03:12:58.649Z,912.65
2017-12-28T03:13:58.643Z,912.61
2017-12-28T03:14:58.637Z,912.62
2017-12-28T03:15:58.632Z,912.63
2017-12-28T03:16:58.625Z,912.67
2017-12-28T03:17:58.618Z,912.65
2017-12-28T03:18:58.612Z,912.60
2017-12-28T03:19:58.606Z,912.60
2017-12-28T03:20:58.600Z,912.60
2017-12-28T03:21:58.592Z,912.58
2017-12-28T03:22:58.587Z,912.65
2017-12-28T03:23:58.580Z,912.67
2017-12-28T03:24:58.576Z,912.67
2017-12-28T03:25:58.568Z,912.70
2017-12-28T03:26:58.562Z,912.69
2017-12-28T03:27:58.556Z,912.67
2017-12-28T03:28:58.550Z,912.67
2017-12-28T03:29:58.543Z,912.71
2017-12-28T03:30:58.537Z,912.72
2017-12-28T03:31:58.532Z,912.76
2017-12-28T03:32:58.526Z,912.72
2017-12-28T03:33:58.517Z,912.75
2017-12-28T03:34:58.513Z,912.79
2017-12-28T03:35:58.506Z,912.77
2017-12-28T03:36:58.501Z,912.75
2017-12-28T03:37:58.493Z,912.76
2017-12-28T03:38:58.488Z,912.83
2017-12-28T03:39:58.484Z,912.85
2017-12-28T03:40:58.476Z,912.86
2017-12-28T03:41:58.470Z,912.89
2017-12-28T03:42:58.469Z,912.86
2017-12-28T03:43:58.458Z,912.84
2017-12-28T03:44:58.452Z,912.85
2017-12-28T03:45:58.444Z,912.88
2017-12-28T03:46:58.439Z,912.87
2017-12-28T03:47:58.433Z,912.83
2017-12-28T03:48:58.427Z,912.90
2017-12-28T03:49:58.420Z,912.93
2017-12-28T03:50:58.414Z,912.93
2017-12-28T03:51:58.408Z,912.92
2017-12-28T03:52:58.402Z,912.94
2017-12-28T03:53:58.396Z,912.96
2017-12-28T03:54:58.389Z,912.96
2017-12-28T03:55:58.383Z,913.03
2017-12-28T03:56:58.381Z,913.04
2017-12-28T03:57:58.371Z,913.03
2017-12-28T03:58:58.365Z,913.03
2017-12-28T03:59:58.359Z,913.09
2017-12-28T04:00:58.353Z,913.13
2017-12-28T04:01:58.346Z,913.14
2017-12-28T04:02:58.340Z,913.15
2017-12-28T04:03:58.334Z,913.12
2017-12-28T04:04:58.328Z,913.16
2017-12-28T04:05:58.322Z,913.14
2017-12-28T04:06:58.315Z,913.17
2017-12-28T04:07:58.310Z,913.20
2017-12-28T04:08:58.303Z,913.21
2017-12-28T04:09:58.296Z,913.24
2017-12-28T04:10:58.292Z,913.23
2017-12-28T04:11:58.285Z,913.26
2017-12-28T04:12:58.282Z,913.26
2017-12-28T04:13:58.272Z,913.30
2017-12-28T04:14:58.266Z,913.24
2017-12-28T04:15:58.260Z,913.24
2017-12-28T04:16:58.254Z,913.30
2017-12-28T04:17:58.247Z,913.30
2017-12-28T04:18:58.242Z,913.32
2017-12-28T04:19:58.235Z,913.37
2017-12-28T04:20:58.229Z,913.36
2017-12-28T04:21:58.223Z,913.39
2017-12-28T04:22:58.216Z,913.37
2017-12-28T04:23:58.210Z,913.34
2017-12-28T04:24:58.204Z,913.35
2017-12-28T04:25:58.197Z,913.36
2017-12-28T04:26:58.190Z,913.37
2017-12-28T04:27:58.185Z,913.36
2017-12-28T04:28:58.179Z,913.39
2017-12-28T04:29:58.172Z,913.37
2017-12-28T04:30:58.166Z,913.43
2017-12-28T04:31:58.160Z,913.38
2017-12-28T04:32:58.153Z,913.43
2017-12-28T04:33:58.146Z,913.41
2017-12-28T04:34:58.141Z,913.42
2017-12-28T04:35:58.136Z,913.47
2017-12-28T04:36:58.128Z,913.49
2017-12-28T04:37:58.123Z,913.51
2017-12-28T04:38:58.115Z,913.54
2017-12-28T04:39:58.110Z,913.58
2017-12-28T04:40:58.104Z,913.66
2017-12-28T04:41:58.098Z,913.63
2017-12-28T04:42:58.091Z,913.59
2017-12-28T04:43:58.085Z,913.58
2017-12-28T04:44:58.078Z,913.57
2017-12-28T04:45:58.071Z,913.56
2017-12-28T04:46:58.067Z,913.62
2017-12-28T04:47:58.061Z,913.63
2017-12-28T04:48:58.054Z,913.61
2017-12-28T04:49:58.047Z,913.63
2017-12-28T04:50:58.041Z,913.64
2017-12-28T04:51:58.035Z,913.66
2017-12-28T04:52:58.032Z,913.69
2017-12-28T04:53:58.023Z,913.69
2017-12-28T04:54:58.017Z,913.68
2017-12-28T04:55:58.012Z,913.67
2017-12-28T04:56:58.005Z,913.69
2017-12-28T04:57:57.997Z,913.71
2017-12-28T04:58:57.992Z,913.71
2017-12-28T04:59:57.986Z,913.72
2017-12-28T05:00:57.982Z,913.74
2017-12-28T05:01:57.974Z,913.67
2017-12-28T05:02:57.968Z,913.70
2017-12-28T05:03:57.961Z,913.71
2017-12-28T05:04:57.955Z,913.72
2017-12-28T05:05:57.948Z,913.72
2017-12-28T05:06:57.949Z,913.72
2017-12-28T05:07:57.937Z,913.74
2017-12-28T05:08:57.931Z,913.75
2017-12-28T05:09:57.923Z,913.78
2017-12-28T05:10:57.917Z,913.82
2017-12-28T05:11:57.913Z,913.82
2017-12-28T05:12:57.906Z,913.84
2017-12-28T05:13:57.898Z,913.83
2017-12-28T05:14:57.895Z,913.80
2017-12-28T05:15:57.887Z,913.81
2017-12-28T05:16:57.880Z,913.75
2017-12-28T05:17:57.872Z,913.78
2017-12-28T05:18:57.866Z,913.78
2017-12-28T05:19:57.861Z,913.83
2017-12-28T05:20:57.856Z,913.84
2017-12-28T05:21:57.849Z,913.89
2017-12-28T05:22:57.841Z,913.88
2017-12-28T05:23:57.835Z,913.88
2017-12-28T05:24:57.830Z,913.89
2017-12-28T05:25:57.824Z,913.96
2017-12-28T05:26:57.817Z,913.98
2017-12-28T05:27:57.811Z,913.98
2017-12-28T05:28:57.805Z,914.05
2017-12-28T05:29:57.797Z,914.07
2017-12-28T05:30:57.792Z,914.09
2017-12-28T05:31:57.784Z,914.01
2017-12-28T05:32:57.780Z,913.98
2017-12-28T05:33:57.772Z,914.02
2017-12-28T05:34:57.766Z,914.05
2017-12-28T05:35:57.759Z,914.08
2017-12-28T05:36:57.752Z,914.07
2017-12-28T05:37:57.747Z,914.14
2017-12-28T05:38:57.741Z,914.14
2017-12-28T05:39:57.735Z,914.13
2017-12-28T05:40:57.730Z,914.16
2017-12-28T05:41:57.721Z,914.08
2017-12-28T05:42:57.715Z,914.12
2017-12-28T05:43:57.709Z,914.14
2017-12-28T05:44:57.703Z,914.20
2017-12-28T05:45:57.696Z,914.16
2017-12-28T05:46:57.690Z,914.16
2017-12-28T05:47:57.685Z,914.16
2017-12-28T05:48:57.679Z,914.19
2017-12-28T05:49:57.672Z,914.17
2017-12-28T05:50:57.666Z,914.20
2017-12-28T05:51:57.660Z,914.15
2017-12-28T05:52:57.653Z,914.20
2017-12-28T05:53:57.657Z,914.28
2017-12-28T05:54:57.640Z,914.13
2017-12-28T05:55:57.634Z,914.19
2017-12-28T05:56:57.629Z,914.18
2017-12-28T05:57:57.621Z,914.23
2017-12-28T05:58:57.663Z,914.20
2017-12-28T05:59:57.610Z,914.24
2017-12-28T06:00:57.603Z,914.26
2017-12-28T06:01:57.596Z,914.28
2017-12-28T06:02:57.591Z,914.26
2017-12-28T06:03:57.584Z,914.29
2017-12-28T06:04:57.581Z,914.30
2017-12-28T06:05:57.571Z,914.32
2017-12-28T06:06:57.571Z,914.37
2017-12-28T06:07:57.559Z,914.35
2017-12-28T06:08:57.553Z,914.41
2017-12-28T06:09:57.546Z,914.41
2017-12-28T06:10:57.541Z,914.38
2017-12-28T06:11:57.534Z,914.42
2017-12-28T06:12:57.529Z,914.41
2017-12-28T06:13:57.521Z,914.38
2017-12-28T06:14:57.515Z,914.40
2017-12-28T06:15:57.510Z,914.42
2017-12-28T06:16:57.504Z,914.45
2017-12-28T06:17:57.496Z,914.44
2017-12-28T06:18:57.490Z,914.45
2017-12-28T06:19:57.485Z,914.47
2017-12-28T06:20:57.478Z,914.47
2017-12-28T06:21:57.472Z,914.50
2017-12-28T06:22:57.465Z,914.49
2017-12-28T06:23:57.460Z,914.53
2017-12-28T06:24:57.454Z,914.47
2017-12-28T06:25:57.447Z,914.56
2017-12-28T06:26:57.441Z,914.55
2017-12-28T06:27:57.436Z,914.61
2017-12-28T06:28:57.431Z,914.60
2017-12-28T06:29:57.423Z,914.64
2017-12-28T06:30:57.415Z,914.64
2017-12-28T06:31:57.409Z,914.62
2017-12-28T06:32:57.404Z,914.67
2017-12-28T06:33:57.398Z,914.70
2017-12-28T06:34:57.391Z,914.73
2017-12-28T06:35:57.385Z,914.70
2017-12-28T06:36:57.380Z,914.71
2017-12-28T06:37:57.372Z,914.78
2017-12-28T06:38:57.369Z,914.88
2017-12-28T06:39:57.361Z,914.85
2017-12-28T06:40:57.354Z,914.85
2017-12-28T06:41:57.347Z,914.85
2017-12-28T06:42:57.341Z,914.86
2017-12-28T06:43:57.336Z,914.89
2017-12-28T06:44:57.330Z,914.91
2017-12-28T06:45:57.324Z,914.86
2017-12-28T06:46:57.315Z,914.89
2017-12-28T06:47:57.309Z,914.88
2017-12-28T06:48:57.303Z,914.96
2017-12-28T06:49:57.296Z,914.93
2017-12-28T06:50:57.290Z,914.94
2017-12-28T06:51:57.291Z,914.93
2017-12-28T06:52:57.277Z,914.98
2017-12-28T06:53:57.272Z,915.07
2017-12-28T06:54:57.266Z,915.09
2017-12-28T06:55:57.259Z,915.05
2017-12-28T06:56:57.252Z,915.07
2017-12-28T06:57:57.245Z,915.06
2017-12-28T06:58:57.239Z,915.09
2017-12-28T06:59:57.233Z,915.09
2017-12-28T07:00:57.227Z,915.12
2017-12-28T07:01:57.220Z,915.09
2017-12-28T07:02:57.213Z,915.13
2017-12-28T07:03:57.207Z,915.13
2017-12-28T07:04:57.201Z,915.13
2017-12-28T07:05:57.194Z,915.16
2017-12-28T07:06:57.187Z,915.21
2017-12-28T07:07:57.181Z,915.20
2017-12-28T07:08:57.176Z,915.18
2017-12-28T07:09:57.170Z,915.26
2017-12-28T07:10:57.163Z,915.28
2017-12-28T07:11:57.156Z,915.31
2017-12-28T07:12:57.151Z,915.36
2017-12-28T07:13:57.144Z,915.41
2017-12-28T07:14:57.136Z,915.39
2017-12-28T07:15:57.133Z,915.46
2017-12-28T07:16:57.124Z,915.40
2017-12-28T07:17:57.118Z,915.39
2017-12-28T07:18:57.111Z,915.46
2017-12-28T07:19:57.105Z,915.48
2017-12-28T07:20:57.099Z,915.43
2017-12-28T07:21:57.092Z,915.43
2017-12-28T07:22:57.087Z,915.47
2017-12-28T07:23:57.081Z,915.50
2017-12-28T07:24:57.074Z,915.49
2017-12-28T07:25:57.066Z,915.52
2017-12-28T07:26:57.060Z,915.49
2017-12-28T07:27:57.055Z,915.52
2017-12-28T07:28:57.049Z,915.54
2017-12-28T07:29:57.044Z,915.50
2017-12-28T07:30:57.035Z,915.56
2017-12-28T07:31:57.029Z,915.61
2017-12-28T07:32:57.023Z,915.60
2017-12-28T07:33:57.016Z,915.62
2017-12-28T07:34:57.009Z,915.66
2017-12-28T07:35:57.003Z,915.67
2017-12-28T07:36:56.997Z,915.68
2017-12-28T07:37:56.990Z,915.71
2017-12-28T07:38:56.984Z,915.73
2017-12-28T07:39:56.976Z,915.69
2017-12-28T07:40:56.972Z,915.73
2017-12-28T07:41:56.964Z,915.75
2017-12-28T07:42:56.959Z,915.75
2017-12-28T07:43:56.950Z,915.80
2017-12-28T07:44:56.943Z,915.77
2017-12-28T07:45:56.937Z,915.79
2017-12-28T07:46:56.930Z,915.78
2017-12-28T07:47:56.924Z,915.78
2017-12-28T07:48:56.918Z,915.77
2017-12-28T07:49:56.912Z,915.71
2017-12-28T07:50:56.906Z,915.74
2017-12-28T07:51:56.898Z,915.76
2017-12-28T07:52:56.892Z,915.79
2017-12-28T07:53:56.884Z,915.76
2017-12-28T07:54:56.879Z,915.74
2017-12-28T07:55:56.879Z,915.76
2017-12-28T07:56:56.865Z,915.80
2017-12-28T07:57:56.858Z,915.77
2017-12-28T07:58:56.852Z,915.78
2017-12-28T07:59:56.847Z,915.86
2017-12-28T08:00:56.840Z,915.82
2017-12-28T08:01:56.831Z,915.84
2017-12-28T08:02:56.824Z,915.84
2017-12-28T08:03:56.818Z,915.86
2017-12-28T08:04:56.811Z,915.81
2017-12-28T08:05:56.804Z,915.87
2017-12-28T08:06:56.799Z,915.94
2017-12-28T08:07:56.791Z,915.89
2017-12-28T08:08:56.785Z,915.89
2017-12-28T08:09:56.777Z,915.87
2017-12-28T08:10:56.771Z,915.91
2017-12-28T08:11:56.766Z,915.94
2017-12-28T08:12:56.760Z,915.95
2017-12-28T08:13:56.752Z,915.95
2017-12-28T08:14:56.745Z,915.97
2017-12-28T08:15:56.739Z,916.04
2017-12-28T08:16:56.735Z,916.03
2017-12-28T08:17:56.747Z,916.01
2017-12-28T08:18:56.719Z,916.07
2017-12-28T08:19:56.713Z,916.04
2017-12-28T08:20:56.707Z,916.00
2017-12-28T08:21:56.700Z,916.04
2017-12-28T08:22:56.693Z,916.07
2017-12-28T08:23:56.686Z,916.08
2017-12-28T08:24:56.680Z,916.13
2017-12-28T08:25:56.673Z,916.12
2017-12-28T08:26:56.668Z,916.09
2017-12-28T08:27:56.660Z,916.12
2017-12-28T08:28:56.654Z,916.16
2017-12-28T08:29:56.647Z,916.10
2017-12-28T08:30:56.641Z,916.15
2017-12-28T08:31:56.636Z,916.19
2017-12-28T08:32:56.630Z,916.19
2017-12-28T08:33:56.622Z,916.18
2017-12-28T08:34:56.615Z,916.24
2017-12-28T08:35:56.611Z,916.29
2017-12-28T08:36:56.603Z,916.23
2017-12-28T08:37:56.596Z,916.32
2017-12-28T08:38:56.589Z,916.31
2017-12-28T08:39:56.584Z,916.29
2017-12-28T08:40:56.578Z,916.29
2017-12-28T08:41:56.572Z,916.37
2017-12-28T08:42:56.566Z,916.41
2017-12-28T08:43:56.561Z,916.39
2017-12-28T08:44:56.552Z,916.40
2017-12-28T08:45:56.545Z,916.43
2017-12-28T08:46:56.546Z,916.42
2017-12-28T08:47:56.533Z,916.45
2017-12-28T08:48:56.528Z,916.50
2017-12-28T08:49:56.521Z,916.57
2017-12-28T08:50:56.516Z,916.52
2017-12-28T08:51:56.510Z,916.59
2017-12-28T08:52:56.504Z,916.62
2017-12-28T08:53:56.497Z,916.64
2017-12-28T08:54:56.491Z,916.60
2017-12-28T08:55:56.785Z,916.70
2017-12-28T08:56:56.477Z,916.75
2017-12-28T08:57:56.471Z,916.70
2017-12-28T08:58:56.466Z,916.69
2017-12-28T08:59:56.460Z,916.78
2017-12-28T09:00:56.454Z,916.81
2017-12-28T09:01:56.447Z,916.81
2017-12-28T09:02:56.441Z,916.83
2017-12-28T09:03:56.435Z,916.79
2017-12-28T09:04:56.429Z,916.77
2017-12-28T09:05:56.421Z,916.84
2017-12-28T09:06:56.416Z,916.83
2017-12-28T09:07:56.410Z,916.85
2017-12-28T09:08:56.403Z,916.95
2017-12-28T09:09:56.400Z,916.98
2017-12-28T09:10:56.393Z,916.93
2017-12-28T09:11:56.385Z,917.04
2017-12-28T09:12:56.380Z,917.04
2017-12-28T09:13:56.372Z,917.08
2017-12-28T09:14:56.365Z,917.11
2017-12-28T09:15:56.359Z,917.11
2017-12-28T09:16:56.353Z,917.06
2017-12-28T09:17:56.347Z,917.16
2017-12-28T09:18:56.341Z,917.11
2017-12-28T09:19:56.334Z,917.16
2017-12-28T09:20:56.330Z,917.17
2017-12-28T09:21:56.322Z,917.28
2017-12-28T09:22:56.316Z,917.27
2017-12-28T09:23:56.311Z,917.28
2017-12-28T09:24:56.305Z,917.27
2017-12-28T09:25:56.298Z,917.33
2017-12-28T09:26:56.291Z,917.36
2017-12-28T09:27:56.285Z,917.32
2017-12-28T09:28:56.280Z,917.35
2017-12-28T09:29:56.273Z,917.29
2017-12-28T09:30:56.266Z,917.35
2017-12-28T09:31:56.262Z,917.35
2017-12-28T09:32:56.255Z,917.43
2017-12-28T09:33:56.249Z,917.31
2017-12-28T09:34:56.242Z,917.28
2017-12-28T09:35:56.238Z,917.25
2017-12-28T09:36:56.231Z,917.25
2017-12-28T09:37:56.224Z,917.42
2017-12-28T09:38:56.218Z,917.34
2017-12-28T09:39:56.211Z,917.34
2017-12-28T09:40:56.205Z,917.39
2017-12-28T09:41:56.197Z,917.40
2017-12-28T09:42:56.191Z,917.47
2017-12-28T09:43:56.185Z,917.41
2017-12-28T09:44:56.180Z,917.47
2017-12-28T09:45:56.172Z,917.48
2017-12-28T09:46:56.166Z,917.50
2017-12-28T09:47:56.158Z,917.50
2017-12-28T09:48:56.153Z,917.49
2017-12-28T09:49:56.145Z,917.46
2017-12-28T09:50:56.139Z,917.43
2017-12-28T09:51:56.165Z,917.57
2017-12-28T09:52:56.593Z,917.57
2017-12-28T09:53:56.120Z,917.54
2017-12-28T09:54:56.115Z,917.59
2017-12-28T09:55:56.107Z,917.50
2017-12-28T09:56:56.102Z,917.53
2017-12-28T09:57:56.094Z,917.59
2017-12-28T09:58:56.088Z,917.52
2017-12-28T09:59:56.081Z,917.54
2017-12-28T10:00:56.076Z,917.53
2017-12-28T10:01:56.067Z,917.62
2017-12-28T10:02:56.062Z,917.64
2017-12-28T10:03:56.055Z,917.54
2017-12-28T10:04:56.048Z,917.55
2017-12-28T10:05:56.041Z,917.62
2017-12-28T10:06:56.035Z,917.68
2017-12-28T10:07:56.029Z,917.65
2017-12-28T10:08:56.023Z,917.68
2017-12-28T10:09:56.015Z,917.70
2017-12-28T10:10:56.008Z,917.61
2017-12-28T10:11:56.002Z,917.76
2017-12-28T10:12:55.996Z,917.63
2017-12-28T10:13:55.987Z,917.68
2017-12-28T10:14:55.982Z,917.80
2017-12-28T10:15:55.974Z,917.76
2017-12-28T10:16:55.969Z,917.72
2017-12-28T10:17:55.960Z,917.72
2017-12-28T10:18:55.953Z,917.74
2017-12-28T10:19:55.948Z,917.69
2017-12-28T10:20:55.940Z,917.72
2017-12-28T10:21:55.933Z,917.64
2017-12-28T10:22:55.926Z,917.71
2017-12-28T10:23:55.920Z,917.81
2017-12-28T10:24:55.913Z,917.82
2017-12-28T10:25:55.905Z,917.87
2017-12-28T10:26:55.899Z,917.83
2017-12-28T10:27:55.893Z,917.78
2017-12-28T10:28:55.887Z,917.82
2017-12-28T10:29:55.880Z,917.90
2017-12-28T10:30:55.872Z,917.79
2017-12-28T10:31:55.867Z,917.70
2017-12-28T10:32:55.860Z,917.80
2017-12-28T10:33:55.853Z,917.83
2017-12-28T10:34:55.845Z,917.80
2017-12-28T10:35:55.840Z,917.88
2017-12-28T10:36:55.832Z,917.78
2017-12-28T10:37:55.824Z,917.85
2017-12-28T10:38:55.819Z,917.83
2017-12-28T10:39:55.810Z,917.75
2017-12-28T10:40:55.804Z,917.79
2017-12-28T10:41:55.797Z,917.69
2017-12-28T10:42:55.790Z,917.69
2017-12-28T10:43:55.783Z,917.67
2017-12-28T10:44:55.777Z,917.67
2017-12-28T10:45:55.769Z,917.84
2017-12-28T10:46:55.762Z,917.67
2017-12-28T10:47:55.760Z,917.61
2017-12-28T10:48:55.749Z,917.67
2017-12-28T10:49:55.741Z,917.76
2017-12-28T10:50:55.736Z,917.63
2017-12-28T10:51:55.728Z,917.71
2017-12-28T10:52:55.721Z,917.64
2017-12-28T10:53:55.719Z,917.65
2017-12-28T10:54:55.706Z,917.69
2017-12-28T10:55:55.699Z,917.65
2017-12-28T10:56:55.693Z,917.60
2017-12-28T10:57:55.685Z,917.60
2017-12-28T10:58:55.678Z,917.68
2017-12-28T10:59:55.672Z,917.65
2017-12-28T11:00:55.665Z,917.64
2017-12-28T11:01:55.656Z,917.72
2017-12-28T11:02:55.648Z,917.75
2017-12-28T11:03:55.642Z,917.74
2017-12-28T11:04:55.636Z,917.72
2017-12-28T11:05:55.626Z,917.80
2017-12-28T11:06:55.619Z,917.84
2017-12-28T11:07:55.614Z,917.86
2017-12-28T11:08:55.606Z,917.91
2017-12-28T11:09:55.598Z,917.87
2017-12-28T11:10:55.592Z,917.89
2017-12-28T11:11:55.585Z,917.94
2017-12-28T11:12:55.577Z,917.92
2017-12-28T11:13:55.570Z,917.84
2017-12-28T11:14:55.563Z,917.83
2017-12-28T11:15:55.554Z,917.89
2017-12-28T11:16:55.549Z,917.96
2017-12-28T11:17:55.539Z,917.93
2017-12-28T11:18:55.534Z,917.93
2017-12-28T11:19:55.525Z,918.04
2017-12-28T11:20:55.519Z,917.97
2017-12-28T11:21:55.510Z,917.99
2017-12-28T11:22:55.504Z,917.94
2017-12-28T11:23:55.498Z,917.93
2017-12-28T11:24:55.491Z,917.91
2017-12-28T11:25:55.482Z,918.01
2017-12-28T11:26:55.524Z,917.97
2017-12-28T11:27:55.468Z,917.99
2017-12-28T11:28:55.464Z,917.97
2017-12-28T11:29:55.452Z,918.09
2017-12-28T11:30:55.446Z,918.11
2017-12-28T11:31:55.444Z,918.17
2017-12-28T11:32:55.431Z,918.21
2017-12-28T11:33:55.424Z,918.26
2017-12-28T11:34:55.417Z,918.20
2017-12-28T11:35:55.409Z,918.12
2017-12-28T11:36:55.405Z,918.23
2017-12-28T11:37:55.396Z,918.22
2017-12-28T11:38:55.389Z,918.22
2017-12-28T11:39:55.381Z,918.32
2017-12-28T11:40:55.374Z,918.16
2017-12-28T11:41:55.366Z,918.27
2017-12-28T11:42:55.359Z,918.38
2017-12-28T11:43:55.352Z,918.38
2017-12-28T11:44:55.345Z,918.47
2017-12-28T11:45:55.337Z,918.47
2017-12-28T11:46:55.329Z,918.56
2017-12-28T11:47:55.323Z,918.57
2017-12-28T11:48:55.317Z,918.56
2017-12-28T11:49:55.309Z,918.54
2017-12-28T11:50:55.302Z,918.60
2017-12-28T11:51:55.294Z,918.68
2017-12-28T11:52:55.294Z,918.71
2017-12-28T11:53:55.282Z,918.75
2017-12-28T11:54:55.272Z,918.77
2017-12-28T11:55:55.265Z,918.90
2017-12-28T11:56:55.258Z,918.87
2017-12-28T11:57:55.251Z,918.91
2017-12-28T11:58:55.251Z,919.04
2017-12-28T11:59:55.237Z,919.04
2017-12-28T12:00:55.231Z,919.09
2017-12-28T12:01:55.223Z,919.05
2017-12-28T12:02:55.216Z,919.08
2017-12-28T12:03:55.208Z,919.05
2017-12-28T12:04:55.202Z,919.04
2017-12-28T12:05:55.194Z,919.12
2017-12-28T12:06:55.188Z,919.13
2017-12-28T12:07:55.181Z,919.05
2017-12-28T12:08:55.174Z,918.97
2017-12-28T12:09:55.165Z,919.03
2017-12-28T12:10:55.158Z,919.10
2017-12-28T12:11:55.151Z,919.16
2017-12-28T12:12:55.145Z,919.17
2017-12-28T12:13:55.136Z,919.24
2017-12-28T12:14:55.130Z,919.21
2017-12-28T12:15:55.122Z,919.33
2017-12-28T12:16:55.116Z,919.38
2017-12-28T12:17:55.108Z,919.43
2017-12-28T12:18:55.100Z,919.47
2017-12-28T12:19:55.096Z,919.38
2017-12-28T12:20:55.088Z,919.39
2017-12-28T12:21:55.079Z,919.41
2017-12-28T12:22:55.073Z,919.42
2017-12-28T12:23:55.065Z,919.47
2017-12-28T12:24:55.058Z,919.52
2017-12-28T12:25:55.050Z,919.49
2017-12-28T12:26:55.044Z,919.58
2017-12-28T12:28:55.029Z,919.60
2017-12-28T12:29:55.025Z,919.63